createdAt,value
2022-10-08T00:01:13.098Z,2.43
2022-10-08T00:03:43.398Z,2.50
2022-10-08T00:06:17.775Z,2.13
2022-10-08T00:08:49.483Z,2.53
2022-10-08T00:11:22.947Z,2.28
2022-10-08T00:13:51.275Z,2.42
2022-10-08T00:16:21.938Z,2.30
2022-10-08T00:18:50.943Z,2.00
2022-10-08T00:21:28.136Z,2.08
2022-10-08T00:23:56.623Z,1.92
2022-10-08T00:26:26.442Z,2.15
2022-10-08T00:28:56.367Z,2.88
2022-10-08T00:31:26.558Z,1.50
2022-10-08T00:33:56.377Z,2.28
2022-10-08T00:36:26.523Z,1.90
2022-10-08T00:39:07.915Z,2.70
2022-10-08T00:41:38.088Z,1.85
2022-10-08T00:44:42.737Z,1.70
2022-10-08T00:47:38.051Z,1.40
2022-10-08T00:50:25.315Z,1.88
2022-10-08T00:53:05.109Z,1.50
2022-10-08T00:55:32.552Z,2.92
2022-10-08T00:58:04.875Z,1.67
2022-10-08T01:00:33.183Z,1.98
2022-10-08T01:03:00.783Z,1.50
2022-10-08T01:05:40.576Z,1.67
2022-10-08T01:08:34.864Z,1.92
2022-10-08T01:11:18.117Z,1.92
2022-10-08T01:13:47.946Z,1.55
2022-10-08T01:16:39.832Z,1.45
2022-10-08T01:19:28.773Z,1.30
2022-10-08T01:22:25.921Z,1.63
2022-10-08T01:25:15.016Z,1.40
2022-10-08T01:27:50.531Z,1.60
2022-10-08T01:30:18.975Z,1.30
2022-10-08T01:33:12.273Z,1.45
2022-10-08T01:35:45.216Z,1.67
2022-10-08T01:38:17.372Z,1.13
2022-10-08T01:40:46.996Z,1.50
2022-10-08T01:43:17.030Z,1.55
2022-10-08T01:45:51.433Z,1.15
2022-10-08T01:48:27.105Z,0.98
2022-10-08T01:51:02.895Z,1.10
2022-10-08T01:53:33.546Z,1.23
2022-10-08T01:56:04.289Z,0.93
2022-10-08T01:58:49.973Z,1.05
2022-10-08T02:01:49.889Z,1.75
2022-10-08T02:04:34.913Z,1.02
2022-10-08T02:07:17.405Z,1.20
2022-10-08T02:09:47.694Z,1.20
2022-10-08T02:12:14.822Z,1.33
2022-10-08T02:14:47.646Z,1.20
2022-10-08T02:17:40.697Z,0.95
2022-10-08T02:20:22.206Z,1.65
2022-10-08T02:23:33.534Z,1.20
2022-10-08T02:26:12.778Z,1.25
2022-10-08T02:29:03.938Z,1.20
2022-10-08T02:31:53.162Z,1.30
2022-10-08T02:34:35.243Z,1.43
2022-10-08T02:37:35.739Z,1.08
2022-10-08T02:40:07.836Z,1.75
2022-10-08T02:42:38.055Z,1.17
2022-10-08T02:45:10.903Z,1.20
2022-10-08T02:47:41.192Z,1.52
2022-10-08T02:50:17.730Z,1.00
2022-10-08T02:52:45.973Z,0.90
2022-10-08T02:55:32.662Z,1.30
2022-10-08T02:58:07.658Z,1.00
2022-10-08T03:00:40.767Z,1.10
2022-10-08T03:03:12.467Z,1.13
2022-10-08T03:05:41.879Z,1.70
2022-10-08T03:08:12.119Z,1.10
2022-10-08T03:10:40.919Z,1.42
2022-10-08T03:13:09.075Z,1.40
2022-10-08T03:15:37.943Z,1.33
2022-10-08T03:18:08.969Z,1.20
2022-10-08T03:20:45.379Z,1.40
2022-10-08T03:23:15.620Z,1.30
2022-10-08T03:25:42.657Z,1.27
2022-10-08T03:28:10.096Z,1.23
2022-10-08T03:30:37.209Z,0.85
2022-10-08T03:33:04.476Z,0.80
2022-10-08T03:35:32.046Z,0.90
2022-10-08T03:37:59.171Z,1.43
2022-10-08T03:40:26.224Z,1.30
2022-10-08T03:42:53.250Z,1.17
2022-10-08T03:45:20.306Z,1.00
2022-10-08T03:47:51.792Z,1.20
2022-10-08T03:50:20.488Z,1.08
2022-10-08T03:52:47.827Z,0.90
2022-10-08T03:55:15.271Z,0.90
2022-10-08T03:57:42.341Z,0.70
2022-10-08T04:00:10.119Z,0.70
2022-10-08T04:02:37.297Z,0.88
2022-10-08T04:05:04.725Z,1.20
2022-10-08T04:07:31.796Z,0.88
2022-10-08T04:09:58.845Z,1.30
2022-10-08T04:12:25.889Z,0.85
2022-10-08T04:14:52.984Z,0.90
2022-10-08T04:17:20.014Z,1.05
2022-10-08T04:19:47.041Z,1.20
2022-10-08T04:22:14.053Z,1.27
2022-10-08T04:24:41.083Z,1.10
2022-10-08T04:27:08.117Z,0.93
2022-10-08T04:29:35.147Z,1.40
2022-10-08T04:32:02.173Z,0.98
2022-10-08T04:34:29.825Z,1.48
2022-10-08T04:36:56.878Z,1.07
2022-10-08T04:39:23.929Z,0.93
2022-10-08T04:41:50.973Z,1.40
2022-10-08T04:44:18.042Z,1.10
2022-10-08T04:46:48.058Z,0.98
2022-10-08T04:49:15.197Z,0.85
2022-10-08T04:51:42.305Z,0.77
2022-10-08T04:54:09.398Z,1.50
2022-10-08T04:56:36.564Z,0.80
2022-10-08T04:59:04.255Z,0.88
2022-10-08T05:01:31.498Z,0.70
2022-10-08T05:03:59.509Z,0.95
2022-10-08T05:06:28.858Z,0.70
2022-10-08T05:08:57.302Z,0.98
2022-10-08T05:11:26.586Z,0.70
2022-10-08T05:13:54.946Z,0.70
2022-10-08T05:16:22.383Z,1.20
2022-10-08T05:18:51.809Z,0.60
2022-10-08T05:21:22.242Z,0.70
2022-10-08T05:23:54.574Z,0.70
2022-10-08T05:26:46.580Z,0.90
2022-10-08T05:29:14.590Z,1.48
2022-10-08T05:31:41.651Z,1.00
2022-10-08T05:34:09.067Z,1.13
2022-10-08T05:36:36.148Z,1.40
2022-10-08T05:39:05.324Z,0.75
2022-10-08T05:41:34.983Z,0.73
2022-10-08T05:44:02.215Z,0.73
2022-10-08T05:46:31.878Z,1.10
2022-10-08T05:49:01.218Z,1.13
2022-10-08T05:51:29.275Z,1.20
2022-10-08T05:53:58.362Z,0.75
2022-10-08T05:56:27.341Z,0.60
2022-10-08T05:58:54.709Z,1.05
2022-10-08T06:01:24.903Z,1.75
2022-10-08T06:03:54.440Z,1.67
2022-10-08T06:06:23.485Z,1.20
2022-10-08T06:08:54.891Z,0.73
2022-10-08T06:11:22.099Z,1.15
2022-10-08T06:13:55.237Z,0.88
2022-10-08T06:16:23.450Z,0.70
2022-10-08T06:18:50.698Z,1.02
2022-10-08T06:21:21.073Z,1.50
2022-10-08T06:23:53.662Z,1.33
2022-10-08T06:26:22.155Z,0.65
2022-10-08T06:28:49.859Z,1.03
2022-10-08T06:31:17.755Z,0.90
2022-10-08T06:33:45.293Z,0.85
2022-10-08T06:36:24.338Z,0.90
2022-10-08T06:38:59.724Z,0.70
2022-10-08T06:41:30.141Z,0.90
2022-10-08T06:43:57.286Z,1.30
2022-10-08T06:46:24.465Z,1.02
2022-10-08T06:48:51.593Z,1.10
2022-10-08T06:51:19.348Z,1.10
2022-10-08T06:53:52.574Z,0.90
2022-10-08T06:56:19.629Z,0.98
2022-10-08T06:58:47.479Z,1.60
2022-10-08T07:01:18.542Z,1.15
2022-10-08T07:03:50.633Z,0.90
2022-10-08T07:06:18.406Z,1.15
2022-10-08T07:08:45.929Z,0.85
2022-10-08T07:11:15.974Z,1.05
2022-10-08T07:13:44.394Z,1.25
2022-10-08T07:16:16.795Z,1.03
2022-10-08T07:18:48.356Z,1.45
2022-10-08T07:21:17.849Z,2.00
2022-10-08T07:23:45.456Z,2.20
2022-10-08T07:26:14.680Z,0.73
2022-10-08T07:28:52.782Z,1.05
2022-10-08T07:31:24.904Z,1.55
2022-10-08T07:33:52.786Z,0.93
2022-10-08T07:36:21.987Z,1.02
2022-10-08T07:38:56.948Z,1.50
2022-10-08T07:41:24.754Z,0.98
2022-10-08T07:43:59.462Z,0.67
2022-10-08T07:46:31.747Z,1.63
2022-10-08T07:48:59.351Z,0.90
2022-10-08T07:51:28.502Z,0.70
2022-10-08T07:54:00.122Z,1.48
2022-10-08T07:56:30.381Z,1.60
2022-10-08T07:58:58.816Z,1.60
2022-10-08T08:01:30.030Z,1.10
2022-10-08T08:04:03.343Z,1.40
2022-10-08T08:06:31.794Z,1.55
2022-10-08T08:09:00.866Z,2.00
2022-10-08T08:11:28.467Z,1.75
2022-10-08T08:13:55.731Z,2.20
2022-10-08T08:16:28.041Z,2.90
2022-10-08T08:18:57.766Z,2.08
2022-10-08T08:21:28.683Z,2.50
2022-10-08T08:23:57.943Z,3.38
2022-10-08T08:26:32.659Z,1.80
2022-10-08T08:29:20.057Z,1.52
2022-10-08T08:31:49.130Z,1.92
2022-10-08T08:34:23.717Z,1.65
2022-10-08T08:36:53.690Z,1.40
2022-10-08T08:39:26.444Z,0.70
2022-10-08T08:42:07.924Z,1.48
2022-10-08T08:44:41.971Z,2.77
2022-10-08T08:47:25.875Z,1.60
2022-10-08T08:50:01.332Z,1.85
2022-10-08T08:52:34.072Z,1.77
2022-10-08T08:55:01.654Z,1.92
2022-10-08T08:57:40.667Z,1.73
2022-10-08T09:00:16.053Z,1.60
2022-10-08T09:02:58.871Z,1.63
2022-10-08T09:05:28.196Z,1.63
2022-10-08T09:08:15.949Z,1.77
2022-10-08T09:10:49.037Z,1.17
2022-10-08T09:13:21.126Z,1.50
2022-10-08T09:15:48.484Z,1.13
2022-10-08T09:18:16.453Z,1.10
2022-10-08T09:20:44.359Z,1.25
2022-10-08T09:23:23.196Z,1.20
2022-10-08T09:26:00.460Z,1.20
2022-10-08T09:28:58.501Z,1.20
2022-10-08T09:31:47.840Z,1.75
2022-10-08T09:34:18.512Z,1.25
2022-10-08T09:36:46.778Z,1.40
2022-10-08T09:39:23.509Z,1.67
2022-10-08T09:42:22.758Z,0.95
2022-10-08T09:45:00.501Z,1.48
2022-10-08T09:47:27.742Z,1.50
2022-10-08T09:50:07.592Z,1.50
2022-10-08T09:52:36.202Z,1.30
2022-10-08T09:55:09.557Z,1.25
2022-10-08T09:57:47.918Z,1.27
2022-10-08T10:00:37.052Z,1.25
2022-10-08T10:03:06.994Z,1.00
2022-10-08T10:05:36.119Z,1.10
2022-10-08T10:08:03.926Z,1.40
2022-10-08T10:10:39.881Z,1.52
2022-10-08T10:13:17.686Z,1.08
2022-10-08T10:15:52.558Z,1.25
2022-10-08T10:18:25.782Z,1.10
2022-10-08T10:21:06.279Z,1.20
2022-10-08T10:23:55.619Z,1.60
2022-10-08T10:26:33.195Z,1.10
2022-10-08T10:29:16.134Z,1.48
2022-10-08T10:31:49.048Z,1.00
2022-10-08T10:34:28.704Z,1.10
2022-10-08T10:37:08.238Z,1.30
2022-10-08T10:39:53.041Z,1.10
2022-10-08T10:42:58.888Z,1.20
2022-10-08T10:45:31.073Z,1.00
2022-10-08T10:47:58.275Z,1.02
2022-10-08T10:50:35.541Z,1.10
2022-10-08T10:53:30.405Z,1.40
2022-10-08T10:56:15.783Z,1.70
2022-10-08T10:59:06.543Z,1.23
2022-10-08T11:01:55.477Z,1.43
2022-10-08T11:04:47.503Z,1.65
2022-10-08T11:07:35.955Z,1.70
2022-10-08T11:10:25.253Z,1.10
2022-10-08T11:12:52.296Z,1.10
2022-10-08T11:15:44.351Z,1.60
2022-10-08T11:18:40.240Z,1.40
2022-10-08T11:21:36.929Z,1.65
2022-10-08T11:24:25.364Z,1.38
2022-10-08T11:27:16.752Z,1.67
2022-10-08T11:30:14.441Z,1.33
2022-10-08T11:32:44.309Z,1.10
2022-10-08T11:35:41.641Z,1.30
2022-10-08T11:38:17.733Z,1.75
2022-10-08T11:41:07.240Z,1.23
2022-10-08T11:43:41.661Z,1.77
2022-10-08T11:46:31.114Z,1.40
2022-10-08T11:49:16.585Z,1.30
2022-10-08T11:51:46.437Z,0.90
2022-10-08T11:54:34.656Z,0.90
2022-10-08T11:57:20.809Z,1.35
2022-10-08T12:00:08.589Z,1.10
2022-10-08T12:02:44.070Z,1.17
2022-10-08T12:05:21.813Z,1.13
2022-10-08T12:07:55.229Z,1.20
2022-10-08T12:10:34.819Z,1.20
2022-10-08T12:13:03.974Z,1.13
2022-10-08T12:15:33.354Z,1.10
2022-10-08T12:18:26.332Z,1.70
2022-10-08T12:21:21.459Z,1.55
2022-10-08T12:23:48.633Z,2.10
2022-10-08T12:26:16.555Z,2.35
2022-10-08T12:28:43.611Z,1.90
2022-10-08T12:31:40.011Z,1.38
2022-10-08T12:34:25.178Z,1.63
2022-10-08T12:37:02.938Z,1.20
2022-10-08T12:39:40.950Z,1.70
2022-10-08T12:42:30.712Z,1.50
2022-10-08T12:45:18.418Z,1.83
2022-10-08T12:48:07.038Z,1.92
2022-10-08T12:50:37.207Z,2.20
2022-10-08T12:53:06.185Z,1.60
2022-10-08T12:55:59.992Z,1.73
2022-10-08T12:58:31.329Z,1.50
2022-10-08T13:01:04.029Z,1.20
2022-10-08T13:03:31.208Z,1.15
2022-10-08T13:06:13.483Z,1.15
2022-10-08T13:08:42.519Z,1.70
2022-10-08T13:11:11.863Z,1.10
2022-10-08T13:13:38.892Z,1.30
2022-10-08T13:16:08.689Z,1.80
2022-10-08T13:18:38.091Z,1.58
2022-10-08T13:21:08.743Z,1.52
2022-10-08T13:23:43.715Z,1.67
2022-10-08T13:26:36.172Z,1.80
2022-10-08T13:29:21.780Z,1.60
2022-10-08T13:32:12.081Z,2.22
2022-10-08T13:34:39.187Z,1.10
2022-10-08T13:37:11.048Z,1.93
2022-10-08T13:39:49.382Z,1.98
2022-10-08T13:42:18.917Z,1.52
2022-10-08T13:44:46.204Z,1.30
2022-10-08T13:47:15.095Z,1.33
2022-10-08T13:49:42.834Z,1.85
2022-10-08T13:52:23.964Z,1.60
2022-10-08T13:54:56.040Z,1.17
2022-10-08T13:57:23.092Z,1.17
2022-10-08T13:59:50.176Z,1.42
2022-10-08T14:02:17.428Z,1.35
2022-10-08T14:04:44.589Z,1.50
2022-10-08T14:07:23.581Z,1.57
2022-10-08T14:09:52.921Z,1.15
2022-10-08T14:12:26.126Z,1.10
2022-10-08T14:14:53.789Z,1.55
2022-10-08T14:17:21.181Z,1.48
2022-10-08T14:19:48.875Z,1.03
2022-10-08T14:22:16.485Z,1.35
2022-10-08T14:24:43.986Z,1.20
2022-10-08T14:27:11.056Z,1.60
2022-10-08T14:29:38.080Z,1.38
2022-10-08T14:32:07.840Z,1.95
2022-10-08T14:34:35.809Z,1.35
2022-10-08T14:37:03.986Z,1.25
2022-10-08T14:39:31.452Z,1.60
2022-10-08T14:41:58.634Z,1.60
2022-10-08T14:44:25.784Z,1.88
2022-10-08T14:46:53.018Z,1.33
2022-10-08T14:49:20.926Z,1.20
2022-10-08T14:51:48.330Z,1.60
2022-10-08T14:54:15.513Z,1.10
2022-10-08T14:56:43.041Z,1.70
2022-10-08T14:59:11.184Z,1.70
2022-10-08T15:01:38.872Z,1.33
2022-10-08T15:04:06.480Z,1.95
2022-10-08T15:06:33.952Z,1.80
2022-10-08T15:09:00.971Z,1.70
2022-10-08T15:11:27.998Z,2.58
2022-10-08T15:13:55.434Z,2.10
2022-10-08T15:16:23.002Z,2.40
2022-10-08T15:18:50.071Z,1.67
2022-10-08T15:21:18.759Z,2.13
2022-10-08T15:23:45.799Z,2.47
2022-10-08T15:26:15.230Z,3.63
2022-10-08T15:28:45.929Z,3.13
2022-10-08T15:31:18.346Z,4.05
2022-10-08T15:33:48.155Z,3.20
2022-10-08T15:36:21.247Z,3.85
2022-10-08T15:38:58.252Z,3.92
2022-10-08T15:41:26.288Z,3.47
2022-10-08T15:43:53.351Z,3.40
2022-10-08T15:46:22.427Z,3.35
2022-10-08T15:48:54.856Z,2.90
2022-10-08T15:51:23.332Z,2.35
2022-10-08T15:53:50.782Z,3.22
2022-10-08T15:56:17.881Z,3.05
2022-10-08T15:58:52.258Z,3.20
2022-10-08T16:01:22.461Z,3.10
2022-10-08T16:03:51.513Z,3.88
2022-10-08T16:06:27.036Z,3.97
2022-10-08T16:08:56.428Z,3.50
2022-10-08T16:11:30.020Z,3.90
2022-10-08T16:14:02.631Z,2.63
2022-10-08T16:16:30.057Z,3.67
2022-10-08T16:19:02.261Z,2.97
2022-10-08T16:21:31.053Z,2.63
2022-10-08T16:23:59.302Z,2.33
2022-10-08T16:26:28.729Z,2.58
2022-10-08T16:28:58.664Z,2.58
2022-10-08T16:31:28.478Z,2.55
2022-10-08T16:33:57.149Z,2.50
2022-10-08T16:36:25.322Z,1.40
2022-10-08T16:38:52.930Z,0.90
2022-10-08T16:41:31.486Z,1.83
2022-10-08T16:44:02.921Z,1.67
2022-10-08T16:46:32.041Z,3.30
2022-10-08T16:49:07.881Z,2.70
2022-10-08T16:51:37.080Z,3.42
2022-10-08T16:54:10.235Z,2.55
2022-10-08T16:56:39.121Z,2.75
2022-10-08T16:59:15.270Z,3.35
2022-10-08T17:01:44.354Z,3.97
2022-10-08T17:04:12.372Z,3.63
2022-10-08T17:06:39.491Z,5.13
2022-10-08T17:09:07.413Z,3.53
2022-10-08T17:11:34.996Z,3.33
2022-10-08T17:14:03.001Z,2.47
2022-10-08T17:16:31.170Z,2.75
2022-10-08T17:19:00.850Z,2.10
2022-10-08T17:21:29.163Z,3.00
2022-10-08T17:23:59.740Z,2.67
2022-10-08T17:26:28.235Z,2.55
2022-10-08T17:28:57.267Z,2.20
2022-10-08T17:31:26.687Z,1.90
2022-10-08T17:33:53.748Z,2.20
2022-10-08T17:36:23.067Z,2.40
2022-10-08T17:38:54.684Z,2.00
2022-10-08T17:41:27.663Z,1.40
2022-10-08T17:43:56.480Z,1.90
2022-10-08T17:46:26.359Z,1.95
2022-10-08T17:48:54.075Z,2.10
2022-10-08T17:51:23.551Z,1.67
2022-10-08T17:53:55.558Z,2.10
2022-10-08T17:56:23.960Z,1.67
2022-10-08T17:58:51.591Z,2.33
2022-10-08T18:01:21.052Z,1.58
2022-10-08T18:03:53.991Z,1.63
2022-10-08T18:06:21.960Z,1.90
2022-10-08T18:08:53.560Z,1.95
2022-10-08T18:11:20.644Z,1.63
2022-10-08T18:13:47.695Z,1.45
2022-10-08T18:16:17.026Z,1.67
2022-10-08T18:18:45.309Z,1.60
2022-10-08T18:21:14.501Z,1.40
2022-10-08T18:23:42.805Z,1.42
2022-10-08T18:26:23.217Z,1.67
2022-10-08T18:28:56.121Z,1.85
2022-10-08T18:31:25.409Z,1.70
2022-10-08T18:33:56.076Z,1.45
2022-10-08T18:36:28.209Z,1.02
2022-10-08T18:38:58.048Z,1.33
2022-10-08T18:41:27.672Z,1.60
2022-10-08T18:43:55.949Z,1.17
2022-10-08T18:46:23.464Z,1.77
2022-10-08T18:48:50.583Z,1.13
2022-10-08T18:51:21.236Z,1.43
2022-10-08T18:53:49.633Z,1.35
2022-10-08T18:56:28.500Z,1.30
2022-10-08T18:59:01.607Z,1.20
2022-10-08T19:01:31.121Z,0.98
2022-10-08T19:04:00.243Z,1.50
2022-10-08T19:06:29.877Z,1.20
2022-10-08T19:08:58.570Z,1.30
2022-10-08T19:11:32.899Z,1.90
2022-10-08T19:14:00.773Z,2.05
2022-10-08T19:16:28.913Z,1.50
2022-10-08T19:19:04.378Z,2.53
2022-10-08T19:21:32.845Z,1.55
2022-10-08T19:24:00.799Z,1.90
2022-10-08T19:26:30.477Z,2.63
2022-10-08T19:28:58.746Z,2.70
2022-10-08T19:31:29.038Z,2.75
2022-10-08T19:34:01.338Z,2.05
2022-10-08T19:36:30.522Z,1.42
2022-10-08T19:39:10.559Z,1.33
2022-10-08T19:41:38.263Z,1.70
2022-10-08T19:44:05.629Z,2.15
2022-10-08T19:46:33.038Z,1.65
2022-10-08T19:49:02.146Z,1.38
2022-10-08T19:51:30.206Z,1.90
2022-10-08T19:54:00.734Z,2.00
2022-10-08T19:56:28.840Z,1.20
2022-10-08T19:58:56.022Z,1.27
2022-10-08T20:01:32.439Z,1.47
2022-10-08T20:04:01.379Z,1.38
2022-10-08T20:06:31.446Z,1.83
2022-10-08T20:09:00.981Z,1.00
2022-10-08T20:11:29.741Z,1.48
2022-10-08T20:13:57.993Z,1.27
2022-10-08T20:16:30.987Z,1.20
2022-10-08T20:19:04.838Z,1.48
2022-10-08T20:21:35.189Z,1.60
2022-10-08T20:24:03.015Z,1.50
2022-10-08T20:26:32.775Z,1.35
2022-10-08T20:29:02.712Z,1.10
2022-10-08T20:31:35.302Z,1.33
2022-10-08T20:34:04.912Z,1.10
2022-10-08T20:36:32.839Z,1.07
2022-10-08T20:38:59.927Z,1.20
2022-10-08T20:41:31.032Z,1.00
2022-10-08T20:44:03.348Z,1.08
2022-10-08T20:46:32.811Z,1.40
2022-10-08T20:49:00.261Z,1.45
2022-10-08T20:51:28.601Z,1.25
2022-10-08T20:53:58.285Z,1.50
2022-10-08T20:56:27.353Z,1.30
2022-10-08T20:58:54.856Z,2.00
2022-10-08T21:01:24.412Z,1.30
2022-10-08T21:03:52.059Z,1.70
2022-10-08T21:06:24.880Z,1.40
2022-10-08T21:08:53.933Z,1.70
2022-10-08T21:11:24.179Z,1.88
2022-10-08T21:13:51.445Z,1.80
2022-10-08T21:16:24.987Z,1.45
2022-10-08T21:18:57.208Z,1.03
2022-10-08T21:21:25.105Z,1.53
2022-10-08T21:23:52.552Z,0.75
2022-10-08T21:26:19.557Z,1.30
2022-10-08T21:28:48.776Z,1.90
2022-10-08T21:31:17.350Z,1.40
2022-10-08T21:33:47.017Z,3.80
2022-10-08T21:36:16.961Z,4.43
2022-10-08T21:38:44.360Z,2.58
2022-10-08T21:41:13.365Z,1.80
2022-10-08T21:43:42.142Z,1.87
2022-10-08T21:46:11.325Z,1.75
2022-10-08T21:48:38.766Z,1.15
2022-10-08T21:51:11.957Z,2.10
2022-10-08T21:53:41.169Z,2.63
2022-10-08T21:56:11.550Z,1.67
2022-10-08T21:58:46.842Z,1.92
2022-10-08T22:01:36.353Z,1.42
2022-10-08T22:04:08.610Z,1.17
2022-10-08T22:06:38.210Z,1.50
2022-10-08T22:09:08.530Z,1.33
2022-10-08T22:11:35.639Z,1.45
2022-10-08T22:14:02.934Z,3.35
2022-10-08T22:16:30.020Z,1.50
2022-10-08T22:18:57.923Z,1.15
2022-10-08T22:21:25.039Z,2.47
2022-10-08T22:23:52.978Z,1.60
2022-10-08T22:26:22.809Z,2.05
2022-10-08T22:28:50.440Z,2.13
2022-10-08T22:31:19.482Z,1.40
2022-10-08T22:33:47.407Z,1.50
2022-10-08T22:36:23.336Z,3.30
2022-10-08T22:38:50.733Z,2.85
2022-10-08T22:41:20.512Z,2.05
2022-10-08T22:43:48.043Z,2.63
2022-10-08T22:46:18.775Z,3.17
2022-10-08T22:48:48.715Z,2.60
2022-10-08T22:51:21.488Z,1.98
2022-10-08T22:53:48.963Z,1.88
2022-10-08T22:56:19.293Z,2.15
2022-10-08T22:58:47.439Z,1.57
2022-10-08T23:01:17.832Z,1.20
2022-10-08T23:03:45.217Z,1.67
2022-10-08T23:06:16.574Z,1.60
2022-10-08T23:08:45.286Z,1.10
2022-10-08T23:11:13.096Z,1.60
2022-10-08T23:13:40.599Z,1.10
2022-10-08T23:16:11.551Z,1.42
2022-10-08T23:18:40.624Z,1.13
2022-10-08T23:21:12.352Z,1.55
2022-10-08T23:23:40.428Z,1.40
2022-10-08T23:26:08.637Z,1.50
2022-10-08T23:28:37.008Z,1.00
2022-10-08T23:31:25.517Z,1.40
2022-10-08T23:33:53.781Z,1.35
2022-10-08T23:36:29.390Z,1.20
2022-10-08T23:38:56.621Z,1.20
2022-10-08T23:41:25.085Z,0.90
2022-10-08T23:43:53.044Z,1.15
2022-10-08T23:46:22.986Z,0.80
2022-10-08T23:48:51.133Z,1.07
2022-10-08T23:51:19.850Z,1.80
2022-10-08T23:53:47.669Z,1.52
2022-10-08T23:56:15.146Z,2.17
2022-10-08T23:58:42.188Z,1.35
